sensor_id;sensor_type;location;lat;lon;timestamp;P1;durP1;ratioP1;P2;durP2;ratioP2
40827;SDS011;26549;50.918;5.338;2023-04-28T00:01:49;16.48;;;7.57;;
40827;SDS011;26549;50.918;5.338;2023-04-28T00:04:15;15.77;;;8.65;;
40827;SDS011;26549;50.918;5.338;2023-04-28T00:06:41;18.15;;;8.52;;
40827;SDS011;26549;50.918;5.338;2023-04-28T00:09:07;11.63;;;8.30;;
40827;SDS011;26549;50.918;5.338;2023-04-28T00:11:36;12.98;;;7.63;;
40827;SDS011;26549;50.918;5.338;2023-04-28T00:14:03;9.70;;;7.03;;
40827;SDS011;26549;50.918;5.338;2023-04-28T00:16:29;9.55;;;7.15;;
40827;SDS011;26549;50.918;5.338;2023-04-28T00:18:54;11.48;;;8.07;;
40827;SDS011;26549;50.918;5.338;2023-04-28T00:21:21;12.70;;;8.25;;
40827;SDS011;26549;50.918;5.338;2023-04-28T00:23:47;13.05;;;7.93;;
40827;SDS011;26549;50.918;5.338;2023-04-28T00:26:13;15.38;;;8.30;;
40827;SDS011;26549;50.918;5.338;2023-04-28T00:28:38;14.95;;;7.97;;
40827;SDS011;26549;50.918;5.338;2023-04-28T00:31:11;13.43;;;8.82;;
40827;SDS011;26549;50.918;5.338;2023-04-28T00:33:42;14.65;;;8.52;;
40827;SDS011;26549;50.918;5.338;2023-04-28T00:36:09;15.75;;;8.88;;
40827;SDS011;26549;50.918;5.338;2023-04-28T00:38:35;12.40;;;8.40;;
40827;SDS011;26549;50.918;5.338;2023-04-28T00:41:01;15.27;;;8.02;;
40827;SDS011;26549;50.918;5.338;2023-04-28T00:43:27;15.75;;;7.95;;
40827;SDS011;26549;50.918;5.338;2023-04-28T00:45:53;14.43;;;8.90;;
40827;SDS011;26549;50.918;5.338;2023-04-28T00:48:19;13.27;;;8.40;;
40827;SDS011;26549;50.918;5.338;2023-04-28T00:50:46;11.50;;;8.35;;
40827;SDS011;26549;50.918;5.338;2023-04-28T00:53:12;16.75;;;8.55;;
40827;SDS011;26549;50.918;5.338;2023-04-28T00:55:39;14.98;;;8.15;;
40827;SDS011;26549;50.918;5.338;2023-04-28T00:58:05;11.45;;;8.27;;
40827;SDS011;26549;50.918;5.338;2023-04-28T01:00:32;16.70;;;8.23;;
40827;SDS011;26549;50.918;5.338;2023-04-28T01:02:59;17.50;;;8.10;;
40827;SDS011;26549;50.918;5.338;2023-04-28T01:05:25;14.18;;;7.90;;
40827;SDS011;26549;50.918;5.338;2023-04-28T01:07:51;15.60;;;7.50;;
40827;SDS011;26549;50.918;5.338;2023-04-28T01:10:17;15.57;;;7.95;;
40827;SDS011;26549;50.918;5.338;2023-04-28T01:12:44;12.82;;;8.57;;
40827;SDS011;26549;50.918;5.338;2023-04-28T01:15:15;13.35;;;7.97;;
40827;SDS011;26549;50.918;5.338;2023-04-28T01:17:42;21.63;;;7.82;;
40827;SDS011;26549;50.918;5.338;2023-04-28T01:20:09;12.32;;;7.75;;
40827;SDS011;26549;50.918;5.338;2023-04-28T01:22:35;14.75;;;8.23;;
40827;SDS011;26549;50.918;5.338;2023-04-28T01:25:01;13.52;;;8.95;;
40827;SDS011;26549;50.918;5.338;2023-04-28T01:27:28;14.57;;;7.70;;
40827;SDS011;26549;50.918;5.338;2023-04-28T01:29:53;13.68;;;8.70;;
40827;SDS011;26549;50.918;5.338;2023-04-28T01:32:19;17.02;;;9.32;;
40827;SDS011;26549;50.918;5.338;2023-04-28T01:34:45;14.65;;;9.38;;
40827;SDS011;26549;50.918;5.338;2023-04-28T01:37:11;11.98;;;8.82;;
40827;SDS011;26549;50.918;5.338;2023-04-28T01:39:37;14.15;;;8.95;;
40827;SDS011;26549;50.918;5.338;2023-04-28T01:42:03;12.38;;;8.55;;
40827;SDS011;26549;50.918;5.338;2023-04-28T01:44:29;14.15;;;8.35;;
40827;SDS011;26549;50.918;5.338;2023-04-28T01:46:54;12.55;;;8.23;;
40827;SDS011;26549;50.918;5.338;2023-04-28T01:49:20;16.88;;;9.40;;
40827;SDS011;26549;50.918;5.338;2023-04-28T01:51:46;14.43;;;9.02;;
40827;SDS011;26549;50.918;5.338;2023-04-28T01:54:12;17.33;;;9.60;;
40827;SDS011;26549;50.918;5.338;2023-04-28T01:56:37;14.88;;;8.60;;
40827;SDS011;26549;50.918;5.338;2023-04-28T01:59:04;14.35;;;9.13;;
40827;SDS011;26549;50.918;5.338;2023-04-28T02:01:30;15.57;;;8.70;;
40827;SDS011;26549;50.918;5.338;2023-04-28T02:03:55;14.70;;;10.20;;
40827;SDS011;26549;50.918;5.338;2023-04-28T02:06:21;12.95;;;8.30;;
40827;SDS011;26549;50.918;5.338;2023-04-28T02:08:47;12.95;;;8.10;;
40827;SDS011;26549;50.918;5.338;2023-04-28T02:11:13;13.75;;;8.13;;
40827;SDS011;26549;50.918;5.338;2023-04-28T02:13:40;14.07;;;8.30;;
40827;SDS011;26549;50.918;5.338;2023-04-28T02:16:06;15.60;;;7.85;;
40827;SDS011;26549;50.918;5.338;2023-04-28T02:18:32;11.70;;;8.27;;
40827;SDS011;26549;50.918;5.338;2023-04-28T02:21:07;11.68;;;8.18;;
40827;SDS011;26549;50.918;5.338;2023-04-28T02:23:35;17.23;;;9.23;;
40827;SDS011;26549;50.918;5.338;2023-04-28T02:26:00;18.08;;;9.25;;
40827;SDS011;26549;50.918;5.338;2023-04-28T02:28:27;17.35;;;9.30;;
40827;SDS011;26549;50.918;5.338;2023-04-28T02:31:15;15.23;;;9.82;;
40827;SDS011;26549;50.918;5.338;2023-04-28T02:33:40;12.32;;;8.02;;
40827;SDS011;26549;50.918;5.338;2023-04-28T02:36:08;14.40;;;8.88;;
40827;SDS011;26549;50.918;5.338;2023-04-28T02:38:35;15.25;;;8.88;;
40827;SDS011;26549;50.918;5.338;2023-04-28T02:41:05;14.27;;;8.82;;
40827;SDS011;26549;50.918;5.338;2023-04-28T02:43:33;16.23;;;9.73;;
40827;SDS011;26549;50.918;5.338;2023-04-28T02:46:01;13.55;;;9.05;;
40827;SDS011;26549;50.918;5.338;2023-04-28T02:48:27;15.88;;;9.68;;
40827;SDS011;26549;50.918;5.338;2023-04-28T02:50:53;15.85;;;9.43;;
40827;SDS011;26549;50.918;5.338;2023-04-28T02:53:19;19.08;;;11.25;;
40827;SDS011;26549;50.918;5.338;2023-04-28T02:55:45;17.10;;;10.90;;
40827;SDS011;26549;50.918;5.338;2023-04-28T02:58:14;18.27;;;11.85;;
40827;SDS011;26549;50.918;5.338;2023-04-28T03:00:41;23.42;;;10.95;;
40827;SDS011;26549;50.918;5.338;2023-04-28T03:03:07;22.20;;;11.73;;
40827;SDS011;26549;50.918;5.338;2023-04-28T03:05:33;19.08;;;11.35;;
40827;SDS011;26549;50.918;5.338;2023-04-28T03:07:59;18.63;;;11.68;;
40827;SDS011;26549;50.918;5.338;2023-04-28T03:10:26;16.38;;;11.65;;
40827;SDS011;26549;50.918;5.338;2023-04-28T03:12:52;19.95;;;11.32;;
40827;SDS011;26549;50.918;5.338;2023-04-28T03:15:17;16.20;;;10.45;;
40827;SDS011;26549;50.918;5.338;2023-04-28T03:17:43;16.35;;;11.82;;
40827;SDS011;26549;50.918;5.338;2023-04-28T03:20:09;16.67;;;10.70;;
40827;SDS011;26549;50.918;5.338;2023-04-28T03:22:35;18.90;;;10.88;;
40827;SDS011;26549;50.918;5.338;2023-04-28T03:25:01;16.65;;;10.63;;
40827;SDS011;26549;50.918;5.338;2023-04-28T03:27:27;17.63;;;10.82;;
40827;SDS011;26549;50.918;5.338;2023-04-28T03:29:53;16.60;;;10.20;;
40827;SDS011;26549;50.918;5.338;2023-04-28T03:32:19;14.20;;;10.35;;
40827;SDS011;26549;50.918;5.338;2023-04-28T03:34:45;20.00;;;10.85;;
40827;SDS011;26549;50.918;5.338;2023-04-28T03:37:11;17.30;;;9.82;;
40827;SDS011;26549;50.918;5.338;2023-04-28T03:39:38;20.20;;;10.75;;
40827;SDS011;26549;50.918;5.338;2023-04-28T03:42:03;17.25;;;10.57;;
40827;SDS011;26549;50.918;5.338;2023-04-28T03:44:29;21.15;;;13.48;;
40827;SDS011;26549;50.918;5.338;2023-04-28T03:46:55;18.52;;;10.90;;
40827;SDS011;26549;50.918;5.338;2023-04-28T03:49:22;15.18;;;10.93;;
40827;SDS011;26549;50.918;5.338;2023-04-28T03:51:48;16.70;;;11.52;;
40827;SDS011;26549;50.918;5.338;2023-04-28T03:54:15;14.85;;;10.43;;
40827;SDS011;26549;50.918;5.338;2023-04-28T03:56:41;16.17;;;10.77;;
40827;SDS011;26549;50.918;5.338;2023-04-28T03:59:07;18.90;;;10.93;;
40827;SDS011;26549;50.918;5.338;2023-04-28T04:01:35;14.23;;;10.23;;
40827;SDS011;26549;50.918;5.338;2023-04-28T04:04:01;16.05;;;10.32;;
40827;SDS011;26549;50.918;5.338;2023-04-28T04:06:27;17.40;;;10.13;;
40827;SDS011;26549;50.918;5.338;2023-04-28T04:08:53;17.00;;;11.02;;
40827;SDS011;26549;50.918;5.338;2023-04-28T04:11:19;17.38;;;11.00;;
40827;SDS011;26549;50.918;5.338;2023-04-28T04:13:45;14.90;;;9.85;;
40827;SDS011;26549;50.918;5.338;2023-04-28T04:16:11;16.25;;;9.68;;
40827;SDS011;26549;50.918;5.338;2023-04-28T04:18:39;18.70;;;11.00;;
40827;SDS011;26549;50.918;5.338;2023-04-28T04:21:06;16.80;;;10.32;;
40827;SDS011;26549;50.918;5.338;2023-04-28T04:23:32;13.32;;;10.35;;
40827;SDS011;26549;50.918;5.338;2023-04-28T04:25:58;20.52;;;10.73;;
40827;SDS011;26549;50.918;5.338;2023-04-28T04:28:24;15.82;;;10.18;;
40827;SDS011;26549;50.918;5.338;2023-04-28T04:30:50;15.90;;;10.55;;
40827;SDS011;26549;50.918;5.338;2023-04-28T04:33:16;17.27;;;11.32;;
40827;SDS011;26549;50.918;5.338;2023-04-28T04:35:41;17.27;;;11.57;;
40827;SDS011;26549;50.918;5.338;2023-04-28T04:38:07;15.38;;;10.13;;
40827;SDS011;26549;50.918;5.338;2023-04-28T04:40:33;20.65;;;10.77;;
40827;SDS011;26549;50.918;5.338;2023-04-28T04:42:59;16.55;;;9.93;;
40827;SDS011;26549;50.918;5.338;2023-04-28T04:45:25;18.58;;;11.95;;
40827;SDS011;26549;50.918;5.338;2023-04-28T04:47:51;18.40;;;11.93;;
40827;SDS011;26549;50.918;5.338;2023-04-28T04:50:17;16.77;;;10.68;;
40827;SDS011;26549;50.918;5.338;2023-04-28T04:52:43;18.02;;;11.02;;
40827;SDS011;26549;50.918;5.338;2023-04-28T04:55:10;16.55;;;10.15;;
40827;SDS011;26549;50.918;5.338;2023-04-28T04:57:35;18.73;;;11.15;;
40827;SDS011;26549;50.918;5.338;2023-04-28T05:00:02;14.70;;;10.50;;
40827;SDS011;26549;50.918;5.338;2023-04-28T05:02:29;18.13;;;11.68;;
40827;SDS011;26549;50.918;5.338;2023-04-28T05:04:54;19.30;;;11.80;;
40827;SDS011;26549;50.918;5.338;2023-04-28T05:07:20;15.57;;;11.63;;
40827;SDS011;26549;50.918;5.338;2023-04-28T05:09:46;17.65;;;10.18;;
40827;SDS011;26549;50.918;5.338;2023-04-28T05:12:12;15.38;;;9.90;;
40827;SDS011;26549;50.918;5.338;2023-04-28T05:14:37;15.63;;;11.25;;
40827;SDS011;26549;50.918;5.338;2023-04-28T05:17:03;16.58;;;10.48;;
40827;SDS011;26549;50.918;5.338;2023-04-28T05:19:29;16.17;;;10.18;;
40827;SDS011;26549;50.918;5.338;2023-04-28T05:21:55;15.00;;;10.25;;
40827;SDS011;26549;50.918;5.338;2023-04-28T05:24:21;13.13;;;9.25;;
40827;SDS011;26549;50.918;5.338;2023-04-28T05:26:50;15.52;;;8.90;;
40827;SDS011;26549;50.918;5.338;2023-04-28T05:29:16;14.65;;;9.43;;
40827;SDS011;26549;50.918;5.338;2023-04-28T05:31:42;13.75;;;9.70;;
40827;SDS011;26549;50.918;5.338;2023-04-28T05:34:09;15.07;;;8.25;;
40827;SDS011;26549;50.918;5.338;2023-04-28T05:36:35;13.20;;;8.30;;
40827;SDS011;26549;50.918;5.338;2023-04-28T05:39:01;14.13;;;9.85;;
40827;SDS011;26549;50.918;5.338;2023-04-28T05:41:26;14.02;;;9.00;;
40827;SDS011;26549;50.918;5.338;2023-04-28T05:43:52;13.75;;;8.48;;
40827;SDS011;26549;50.918;5.338;2023-04-28T05:46:18;15.48;;;7.75;;
40827;SDS011;26549;50.918;5.338;2023-04-28T05:48:44;14.40;;;7.95;;
40827;SDS011;26549;50.918;5.338;2023-04-28T05:51:10;14.55;;;8.88;;
40827;SDS011;26549;50.918;5.338;2023-04-28T05:53:36;10.27;;;8.07;;
40827;SDS011;26549;50.918;5.338;2023-04-28T05:56:02;11.57;;;7.80;;
40827;SDS011;26549;50.918;5.338;2023-04-28T05:58:28;12.30;;;7.75;;
40827;SDS011;26549;50.918;5.338;2023-04-28T06:00:53;14.13;;;8.07;;
40827;SDS011;26549;50.918;5.338;2023-04-28T06:03:19;12.20;;;8.13;;
40827;SDS011;26549;50.918;5.338;2023-04-28T06:05:45;12.95;;;8.10;;
40827;SDS011;26549;50.918;5.338;2023-04-28T06:08:11;10.02;;;7.93;;
40827;SDS011;26549;50.918;5.338;2023-04-28T06:10:37;11.30;;;8.25;;
40827;SDS011;26549;50.918;5.338;2023-04-28T06:13:02;11.18;;;7.97;;
40827;SDS011;26549;50.918;5.338;2023-04-28T06:15:30;10.23;;;7.75;;
40827;SDS011;26549;50.918;5.338;2023-04-28T06:17:56;13.27;;;8.27;;
40827;SDS011;26549;50.918;5.338;2023-04-28T06:20:23;10.80;;;7.82;;
40827;SDS011;26549;50.918;5.338;2023-04-28T06:22:49;11.77;;;7.45;;
40827;SDS011;26549;50.918;5.338;2023-04-28T06:25:15;10.50;;;8.35;;
40827;SDS011;26549;50.918;5.338;2023-04-28T06:27:42;14.80;;;8.85;;
40827;SDS011;26549;50.918;5.338;2023-04-28T06:30:08;11.55;;;8.52;;
40827;SDS011;26549;50.918;5.338;2023-04-28T06:32:34;11.18;;;6.75;;
40827;SDS011;26549;50.918;5.338;2023-04-28T06:35:00;11.02;;;7.65;;
40827;SDS011;26549;50.918;5.338;2023-04-28T06:37:25;15.70;;;8.57;;
40827;SDS011;26549;50.918;5.338;2023-04-28T06:39:51;13.15;;;7.70;;
40827;SDS011;26549;50.918;5.338;2023-04-28T06:42:17;10.85;;;7.07;;
40827;SDS011;26549;50.918;5.338;2023-04-28T06:44:44;11.57;;;7.10;;
40827;SDS011;26549;50.918;5.338;2023-04-28T06:47:10;10.95;;;7.75;;
40827;SDS011;26549;50.918;5.338;2023-04-28T06:49:36;8.82;;;6.93;;
40827;SDS011;26549;50.918;5.338;2023-04-28T06:54:31;11.38;;;6.63;;
40827;SDS011;26549;50.918;5.338;2023-04-28T06:57:00;11.07;;;6.80;;
40827;SDS011;26549;50.918;5.338;2023-04-28T06:59:26;11.18;;;7.00;;
40827;SDS011;26549;50.918;5.338;2023-04-28T07:01:52;8.93;;;7.22;;
40827;SDS011;26549;50.918;5.338;2023-04-28T07:06:49;12.27;;;7.53;;
40827;SDS011;26549;50.918;5.338;2023-04-28T07:09:16;10.02;;;6.93;;
40827;SDS011;26549;50.918;5.338;2023-04-28T07:11:42;10.43;;;7.47;;
40827;SDS011;26549;50.918;5.338;2023-04-28T07:16:38;9.40;;;7.22;;
40827;SDS011;26549;50.918;5.338;2023-04-28T07:19:05;11.00;;;7.68;;
40827;SDS011;26549;50.918;5.338;2023-04-28T07:24:00;9.30;;;7.80;;
40827;SDS011;26549;50.918;5.338;2023-04-28T07:26:27;11.07;;;7.05;;
40827;SDS011;26549;50.918;5.338;2023-04-28T07:28:56;7.75;;;6.47;;
40827;SDS011;26549;50.918;5.338;2023-04-28T07:31:24;12.25;;;6.80;;
40827;SDS011;26549;50.918;5.338;2023-04-28T07:33:50;10.15;;;7.97;;
40827;SDS011;26549;50.918;5.338;2023-04-28T07:36:16;11.65;;;7.13;;
40827;SDS011;26549;50.918;5.338;2023-04-28T07:38:43;14.68;;;10.57;;
40827;SDS011;26549;50.918;5.338;2023-04-28T07:41:09;12.45;;;9.85;;
40827;SDS011;26549;50.918;5.338;2023-04-28T07:43:35;13.82;;;11.05;;
40827;SDS011;26549;50.918;5.338;2023-04-28T07:46:02;13.13;;;9.75;;
40827;SDS011;26549;50.918;5.338;2023-04-28T07:48:31;11.18;;;9.13;;
40827;SDS011;26549;50.918;5.338;2023-04-28T07:50:57;11.88;;;7.82;;
40827;SDS011;26549;50.918;5.338;2023-04-28T07:53:26;11.25;;;8.57;;
40827;SDS011;26549;50.918;5.338;2023-04-28T07:55:54;13.45;;;8.63;;
40827;SDS011;26549;50.918;5.338;2023-04-28T07:58:21;9.45;;;7.30;;
40827;SDS011;26549;50.918;5.338;2023-04-28T08:00:47;11.82;;;8.43;;
40827;SDS011;26549;50.918;5.338;2023-04-28T08:03:13;8.02;;;6.30;;
40827;SDS011;26549;50.918;5.338;2023-04-28T08:05:40;8.35;;;6.43;;
40827;SDS011;26549;50.918;5.338;2023-04-28T08:08:08;7.80;;;6.50;;
40827;SDS011;26549;50.918;5.338;2023-04-28T08:10:34;7.97;;;5.78;;
40827;SDS011;26549;50.918;5.338;2023-04-28T08:15:49;7.38;;;5.78;;
40827;SDS011;26549;50.918;5.338;2023-04-28T08:18:15;6.70;;;4.97;;
40827;SDS011;26549;50.918;5.338;2023-04-28T08:20:41;6.85;;;5.30;;
40827;SDS011;26549;50.918;5.338;2023-04-28T08:23:08;7.43;;;5.70;;
40827;SDS011;26549;50.918;5.338;2023-04-28T08:25:34;5.03;;;4.53;;
40827;SDS011;26549;50.918;5.338;2023-04-28T08:27:59;4.95;;;4.00;;
40827;SDS011;26549;50.918;5.338;2023-04-28T08:30:27;5.95;;;5.20;;
40827;SDS011;26549;50.918;5.338;2023-04-28T08:32:53;6.85;;;5.50;;
40827;SDS011;26549;50.918;5.338;2023-04-28T08:35:21;5.45;;;4.88;;
40827;SDS011;26549;50.918;5.338;2023-04-28T08:37:47;4.93;;;4.22;;
40827;SDS011;26549;50.918;5.338;2023-04-28T08:40:13;5.03;;;4.13;;
40827;SDS011;26549;50.918;5.338;2023-04-28T08:42:40;5.18;;;4.53;;
40827;SDS011;26549;50.918;5.338;2023-04-28T08:45:07;7.50;;;5.22;;
40827;SDS011;26549;50.918;5.338;2023-04-28T08:47:38;6.15;;;5.13;;
40827;SDS011;26549;50.918;5.338;2023-04-28T08:52:48;6.93;;;5.40;;
40827;SDS011;26549;50.918;5.338;2023-04-28T08:55:24;5.20;;;4.70;;
40827;SDS011;26549;50.918;5.338;2023-04-28T08:57:51;8.48;;;4.82;;
40827;SDS011;26549;50.918;5.338;2023-04-28T09:00:18;6.28;;;4.40;;
40827;SDS011;26549;50.918;5.338;2023-04-28T09:02:46;6.97;;;5.05;;
40827;SDS011;26549;50.918;5.338;2023-04-28T09:05:12;11.13;;;5.13;;
40827;SDS011;26549;50.918;5.338;2023-04-28T09:07:39;5.60;;;4.55;;
40827;SDS011;26549;50.918;5.338;2023-04-28T09:10:27;5.70;;;3.67;;
40827;SDS011;26549;50.918;5.338;2023-04-28T09:12:53;3.10;;;2.67;;
40827;SDS011;26549;50.918;5.338;2023-04-28T09:15:35;3.88;;;2.80;;
40827;SDS011;26549;50.918;5.338;2023-04-28T09:18:05;4.00;;;2.40;;
40827;SDS011;26549;50.918;5.338;2023-04-28T09:20:32;7.18;;;2.28;;
40827;SDS011;26549;50.918;5.338;2023-04-28T09:23:12;4.80;;;1.80;;
40827;SDS011;26549;50.918;5.338;2023-04-28T09:25:59;2.25;;;1.80;;
40827;SDS011;26549;50.918;5.338;2023-04-28T09:28:33;3.53;;;2.00;;
40827;SDS011;26549;50.918;5.338;2023-04-28T09:30:59;4.30;;;2.45;;
40827;SDS011;26549;50.918;5.338;2023-04-28T09:33:25;3.13;;;1.90;;
40827;SDS011;26549;50.918;5.338;2023-04-28T09:35:52;3.38;;;2.03;;
40827;SDS011;26549;50.918;5.338;2023-04-28T09:38:19;4.07;;;1.73;;
40827;SDS011;26549;50.918;5.338;2023-04-28T09:40:57;2.10;;;1.88;;
40827;SDS011;26549;50.918;5.338;2023-04-28T09:43:31;2.60;;;1.73;;
40827;SDS011;26549;50.918;5.338;2023-04-28T09:46:00;2.83;;;2.40;;
40827;SDS011;26549;50.918;5.338;2023-04-28T09:48:28;6.70;;;2.40;;
40827;SDS011;26549;50.918;5.338;2023-04-28T09:50:58;2.15;;;1.80;;
40827;SDS011;26549;50.918;5.338;2023-04-28T09:53:26;1.85;;;1.70;;
40827;SDS011;26549;50.918;5.338;2023-04-28T09:55:52;2.13;;;1.92;;
40827;SDS011;26549;50.918;5.338;2023-04-28T09:58:20;3.53;;;2.30;;
40827;SDS011;26549;50.918;5.338;2023-04-28T10:01:05;2.53;;;1.70;;
40827;SDS011;26549;50.918;5.338;2023-04-28T10:03:35;4.07;;;2.45;;
40827;SDS011;26549;50.918;5.338;2023-04-28T10:06:01;2.47;;;2.00;;
40827;SDS011;26549;50.918;5.338;2023-04-28T10:08:28;2.20;;;1.92;;
40827;SDS011;26549;50.918;5.338;2023-04-28T10:10:53;2.30;;;1.90;;
40827;SDS011;26549;50.918;5.338;2023-04-28T10:13:21;3.20;;;2.88;;
40827;SDS011;26549;50.918;5.338;2023-04-28T10:15:48;2.30;;;1.95;;
40827;SDS011;26549;50.918;5.338;2023-04-28T10:18:14;2.33;;;2.13;;
40827;SDS011;26549;50.918;5.338;2023-04-28T10:20:45;3.97;;;1.88;;
40827;SDS011;26549;50.918;5.338;2023-04-28T10:26:02;1.50;;;1.40;;
40827;SDS011;26549;50.918;5.338;2023-04-28T10:28:34;1.83;;;1.60;;
40827;SDS011;26549;50.918;5.338;2023-04-28T10:31:19;3.00;;;1.77;;
40827;SDS011;26549;50.918;5.338;2023-04-28T10:33:46;1.70;;;1.52;;
40827;SDS011;26549;50.918;5.338;2023-04-28T10:39:18;1.85;;;1.70;;
40827;SDS011;26549;50.918;5.338;2023-04-28T10:41:44;1.92;;;1.52;;
40827;SDS011;26549;50.918;5.338;2023-04-28T10:47:06;2.05;;;1.92;;
40827;SDS011;26549;50.918;5.338;2023-04-28T11:00:47;2.45;;;2.05;;
40827;SDS011;26549;50.918;5.338;2023-04-28T11:08:58;2.35;;;1.83;;
40827;SDS011;26549;50.918;5.338;2023-04-28T11:11:32;2.03;;;1.58;;
40827;SDS011;26549;50.918;5.338;2023-04-28T11:16:56;1.77;;;1.42;;
40827;SDS011;26549;50.918;5.338;2023-04-28T11:19:28;3.08;;;1.70;;
40827;SDS011;26549;50.918;5.338;2023-04-28T11:22:05;1.70;;;1.40;;
40827;SDS011;26549;50.918;5.338;2023-04-28T11:25:03;1.80;;;1.00;;
40827;SDS011;26549;50.918;5.338;2023-04-28T11:27:29;2.03;;;0.70;;
40827;SDS011;26549;50.918;5.338;2023-04-28T11:29:57;0.80;;;0.52;;
40827;SDS011;26549;50.918;5.338;2023-04-28T11:32:34;1.25;;;0.50;;
40827;SDS011;26549;50.918;5.338;2023-04-28T11:35:00;0.85;;;0.60;;
40827;SDS011;26549;50.918;5.338;2023-04-28T11:37:30;1.33;;;0.40;;
40827;SDS011;26549;50.918;5.338;2023-04-28T11:39:57;0.88;;;0.70;;
40827;SDS011;26549;50.918;5.338;2023-04-28T11:42:22;0.50;;;0.45;;
40827;SDS011;26549;50.918;5.338;2023-04-28T11:44:51;1.30;;;0.50;;
40827;SDS011;26549;50.918;5.338;2023-04-28T11:47:32;0.35;;;0.35;;
40827;SDS011;26549;50.918;5.338;2023-04-28T11:49:58;0.40;;;0.30;;
40827;SDS011;26549;50.918;5.338;2023-04-28T11:52:25;0.82;;;0.38;;
40827;SDS011;26549;50.918;5.338;2023-04-28T11:54:55;0.38;;;0.30;;
40827;SDS011;26549;50.918;5.338;2023-04-28T11:57:23;0.45;;;0.40;;
40827;SDS011;26549;50.918;5.338;2023-04-28T11:59:52;0.30;;;0.30;;
40827;SDS011;26549;50.918;5.338;2023-04-28T12:02:27;1.23;;;0.52;;
40827;SDS011;26549;50.918;5.338;2023-04-28T12:04:53;0.38;;;0.32;;
40827;SDS011;26549;50.918;5.338;2023-04-28T12:07:19;2.40;;;0.50;;
40827;SDS011;26549;50.918;5.338;2023-04-28T12:09:47;1.23;;;0.77;;
40827;SDS011;26549;50.918;5.338;2023-04-28T12:12:44;1.10;;;0.82;;
40827;SDS011;26549;50.918;5.338;2023-04-28T12:15:11;1.33;;;0.65;;
40827;SDS011;26549;50.918;5.338;2023-04-28T12:17:39;6.03;;;0.93;;
40827;SDS011;26549;50.918;5.338;2023-04-28T12:20:12;0.95;;;0.40;;
40827;SDS011;26549;50.918;5.338;2023-04-28T12:23:04;1.35;;;0.55;;
40827;SDS011;26549;50.918;5.338;2023-04-28T12:25:32;0.98;;;0.50;;
40827;SDS011;26549;50.918;5.338;2023-04-28T12:28:01;0.32;;;0.30;;
40827;SDS011;26549;50.918;5.338;2023-04-28T12:30:30;0.30;;;0.30;;
40827;SDS011;26549;50.918;5.338;2023-04-28T12:32:57;0.70;;;0.65;;
40827;SDS011;26549;50.918;5.338;2023-04-28T12:35:24;0.38;;;0.30;;
40827;SDS011;26549;50.918;5.338;2023-04-28T12:37:52;2.97;;;0.80;;
40827;SDS011;26549;50.918;5.338;2023-04-28T12:40:19;0.73;;;0.47;;
40827;SDS011;26549;50.918;5.338;2023-04-28T12:42:45;3.92;;;0.40;;
40827;SDS011;26549;50.918;5.338;2023-04-28T12:45:11;1.17;;;0.75;;
40827;SDS011;26549;50.918;5.338;2023-04-28T12:47:36;1.35;;;0.60;;
40827;SDS011;26549;50.918;5.338;2023-04-28T12:50:04;1.05;;;0.95;;
40827;SDS011;26549;50.918;5.338;2023-04-28T12:52:30;2.90;;;0.60;;
40827;SDS011;26549;50.918;5.338;2023-04-28T12:55:00;0.68;;;0.68;;
40827;SDS011;26549;50.918;5.338;2023-04-28T12:57:26;1.30;;;0.80;;
40827;SDS011;26549;50.918;5.338;2023-04-28T12:59:52;4.75;;;1.05;;
40827;SDS011;26549;50.918;5.338;2023-04-28T13:02:20;1.05;;;1.00;;
40827;SDS011;26549;50.918;5.338;2023-04-28T13:04:46;1.48;;;0.95;;
40827;SDS011;26549;50.918;5.338;2023-04-28T13:07:13;2.22;;;1.15;;
40827;SDS011;26549;50.918;5.338;2023-04-28T13:09:45;1.02;;;1.00;;
40827;SDS011;26549;50.918;5.338;2023-04-28T13:12:12;1.13;;;0.98;;
40827;SDS011;26549;50.918;5.338;2023-04-28T13:14:39;1.30;;;1.20;;
40827;SDS011;26549;50.918;5.338;2023-04-28T13:17:05;1.58;;;1.45;;
40827;SDS011;26549;50.918;5.338;2023-04-28T13:19:33;1.50;;;1.40;;
40827;SDS011;26549;50.918;5.338;2023-04-28T13:22:00;5.78;;;1.63;;
40827;SDS011;26549;50.918;5.338;2023-04-28T13:24:30;3.08;;;1.27;;
40827;SDS011;26549;50.918;5.338;2023-04-28T13:26:58;3.60;;;1.40;;
40827;SDS011;26549;50.918;5.338;2023-04-28T13:29:24;1.17;;;1.10;;
40827;SDS011;26549;50.918;5.338;2023-04-28T13:31:51;1.40;;;1.30;;
40827;SDS011;26549;50.918;5.338;2023-04-28T13:34:20;4.13;;;1.50;;
40827;SDS011;26549;50.918;5.338;2023-04-28T13:36:46;7.38;;;1.80;;
40827;SDS011;26549;50.918;5.338;2023-04-28T13:39:15;2.17;;;0.60;;
40827;SDS011;26549;50.918;5.338;2023-04-28T13:41:44;3.30;;;1.13;;
40827;SDS011;26549;50.918;5.338;2023-04-28T13:44:09;0.98;;;0.90;;
40827;SDS011;26549;50.918;5.338;2023-04-28T13:46:35;0.93;;;0.82;;
40827;SDS011;26549;50.918;5.338;2023-04-28T13:49:03;1.98;;;0.88;;
40827;SDS011;26549;50.918;5.338;2023-04-28T13:51:29;1.15;;;0.90;;
40827;SDS011;26549;50.918;5.338;2023-04-28T13:53:58;0.70;;;0.70;;
40827;SDS011;26549;50.918;5.338;2023-04-28T13:56:25;0.85;;;0.75;;
40827;SDS011;26549;50.918;5.338;2023-04-28T13:58:52;4.68;;;0.80;;
40827;SDS011;26549;50.918;5.338;2023-04-28T14:01:18;0.73;;;0.60;;
40827;SDS011;26549;50.918;5.338;2023-04-28T14:03:44;0.90;;;0.60;;
40827;SDS011;26549;50.918;5.338;2023-04-28T14:06:10;1.65;;;0.50;;
40827;SDS011;26549;50.918;5.338;2023-04-28T14:08:36;1.30;;;0.60;;
40827;SDS011;26549;50.918;5.338;2023-04-28T14:11:04;1.17;;;0.63;;
40827;SDS011;26549;50.918;5.338;2023-04-28T14:13:32;1.33;;;0.70;;
40827;SDS011;26549;50.918;5.338;2023-04-28T14:16:01;0.88;;;0.50;;
40827;SDS011;26549;50.918;5.338;2023-04-28T14:18:27;1.60;;;0.68;;
40827;SDS011;26549;50.918;5.338;2023-04-28T14:20:53;0.88;;;0.60;;
40827;SDS011;26549;50.918;5.338;2023-04-28T14:23:20;1.35;;;0.68;;
40827;SDS011;26549;50.918;5.338;2023-04-28T14:25:51;0.50;;;0.47;;
40827;SDS011;26549;50.918;5.338;2023-04-28T14:28:19;0.50;;;0.50;;
40827;SDS011;26549;50.918;5.338;2023-04-28T14:30:45;0.80;;;0.70;;
40827;SDS011;26549;50.918;5.338;2023-04-28T14:33:12;0.50;;;0.50;;
40827;SDS011;26549;50.918;5.338;2023-04-28T14:35:39;0.63;;;0.63;;
40827;SDS011;26549;50.918;5.338;2023-04-28T14:38:05;1.52;;;0.50;;
40827;SDS011;26549;50.918;5.338;2023-04-28T14:40:31;0.95;;;0.80;;
40827;SDS011;26549;50.918;5.338;2023-04-28T14:42:57;1.13;;;0.60;;
40827;SDS011;26549;50.918;5.338;2023-04-28T14:45:23;0.65;;;0.60;;
40827;SDS011;26549;50.918;5.338;2023-04-28T14:47:49;0.38;;;0.30;;
40827;SDS011;26549;50.918;5.338;2023-04-28T14:50:14;0.43;;;0.43;;
40827;SDS011;26549;50.918;5.338;2023-04-28T14:52:41;0.60;;;0.60;;
40827;SDS011;26549;50.918;5.338;2023-04-28T14:55:08;1.45;;;0.50;;
40827;SDS011;26549;50.918;5.338;2023-04-28T14:57:35;0.63;;;0.60;;
40827;SDS011;26549;50.918;5.338;2023-04-28T15:00:01;1.25;;;0.60;;
40827;SDS011;26549;50.918;5.338;2023-04-28T15:02:28;2.05;;;0.63;;
40827;SDS011;26549;50.918;5.338;2023-04-28T15:04:55;0.95;;;0.70;;
40827;SDS011;26549;50.918;5.338;2023-04-28T15:07:21;0.50;;;0.50;;
40827;SDS011;26549;50.918;5.338;2023-04-28T15:09:47;1.60;;;0.70;;
40827;SDS011;26549;50.918;5.338;2023-04-28T15:12:14;1.00;;;0.73;;
40827;SDS011;26549;50.918;5.338;2023-04-28T15:14:40;0.70;;;0.55;;
40827;SDS011;26549;50.918;5.338;2023-04-28T15:17:06;2.03;;;0.70;;
40827;SDS011;26549;50.918;5.338;2023-04-28T15:19:39;2.05;;;0.75;;
40827;SDS011;26549;50.918;5.338;2023-04-28T15:22:07;2.15;;;0.70;;
40827;SDS011;26549;50.918;5.338;2023-04-28T15:24:34;0.80;;;0.70;;